首页
METAR-TAF:

METAR-TAF

机场 :

富納富提國際機場

富纳富提, 圖瓦盧

纬度: 08-31S, 经度: 179-13E, 海拔: 1米

当前天气观测

该预报发布于1小时和44分钟前的15:00 UTC
风速8节,风向东南
温度 29°C
湿度 84%
气压 1008 hPa
能见度10公里或以上
散云层高于1800英尺, 积雨云.
少量云层高于1900英尺, 塔状积云.
多云层高于10000英尺
附近有阵雨

METAR: NGFU 261500Z 14008KT 9999 VCSH SCT018CB FEW019TCU BKN100 29/26 Q1008

时间: 04:44 (16:44 UTC)

预报

该预报发布于5小时和23分钟前的11:21 UTC
预报有效从26日的 12点(UTC)到 27日的 12点(UTC)
风速13节,风向东转东南
能见度10公里或以上
散云层高于1800英尺
多云层高于10000英尺
小阵雨
几率 40% :
短暂存在
从 26日的 12点(UTC)到 27日的 06点(UTC)
能見度: 4000
多云层高于1500英尺
少量云层高于1700英尺, 积雨云.
雷暴, 雨

TAF: NGFU 261121Z 2612/2712 11013KT 9999 -SHRA SCT018 BKN100 PROB40 TEMPO 2612/2706 4000 TSRA BKN015 FEW017CB

超过4000个机场的气象观测和天气预报(METAR&TAF报告)。

可查询的气象台以黄色和红色小点在地图上表示。

将鼠标移到小点上方,可查看气象台名称。

然后点击查看天气观测和预报。

如需切换地图:点击带黑十字的绿色按钮放大地图;点击带横线的绿色按钮缩小地图;或者点击绿色箭头查看邻近地区的地图。


METAR-TAF: